sensor_id;sensor_type;location;lat;lon;timestamp;P1;P2;P0
64631;PMS5003;58358;50.936;0.246;2023-07-16T00:02:11;15;14;
64631;PMS5003;58358;50.936;0.246;2023-07-16T00:04:36;14;13;
64631;PMS5003;58358;50.936;0.246;2023-07-16T00:07:02;17;15;
64631;PMS5003;58358;50.936;0.246;2023-07-16T00:09:27;16;16;
64631;PMS5003;58358;50.936;0.246;2023-07-16T00:11:52;15;13;
64631;PMS5003;58358;50.936;0.246;2023-07-16T00:14:18;10;8;
64631;PMS5003;58358;50.936;0.246;2023-07-16T00:16:43;17;13;
64631;PMS5003;58358;50.936;0.246;2023-07-16T00:19:10;17;13;
64631;PMS5003;58358;50.936;0.246;2023-07-16T00:21:34;10;10;
64631;PMS5003;58358;50.936;0.246;2023-07-16T00:24:00;12;12;
64631;PMS5003;58358;50.936;0.246;2023-07-16T00:26:26;9;9;
64631;PMS5003;58358;50.936;0.246;2023-07-16T00:28:51;10;8;
64631;PMS5003;58358;50.936;0.246;2023-07-16T00:31:17;12;9;
64631;PMS5003;58358;50.936;0.246;2023-07-16T00:33:42;13;10;
64631;PMS5003;58358;50.936;0.246;2023-07-16T00:36:08;15;10;
64631;PMS5003;58358;50.936;0.246;2023-07-16T00:38:33;11;11;
64631;PMS5003;58358;50.936;0.246;2023-07-16T00:40:59;11;9;
64631;PMS5003;58358;50.936;0.246;2023-07-16T00:43:24;15;12;
64631;PMS5003;58358;50.936;0.246;2023-07-16T00:45:50;9;8;
64631;PMS5003;58358;50.936;0.246;2023-07-16T00:48:15;11;11;
64631;PMS5003;58358;50.936;0.246;2023-07-16T00:50:41;13;7;
64631;PMS5003;58358;50.936;0.246;2023-07-16T00:53:06;9;6;
64631;PMS5003;58358;50.936;0.246;2023-07-16T00:55:32;7;6;
64631;PMS5003;58358;50.936;0.246;2023-07-16T00:57:57;12;10;
64631;PMS5003;58358;50.936;0.246;2023-07-16T01:00:23;12;10;
64631;PMS5003;58358;50.936;0.246;2023-07-16T01:02:49;8;7;
64631;PMS5003;58358;50.936;0.246;2023-07-16T01:05:14;9;7;
64631;PMS5003;58358;50.936;0.246;2023-07-16T01:07:40;8;7;
64631;PMS5003;58358;50.936;0.246;2023-07-16T01:10:07;10;9;
64631;PMS5003;58358;50.936;0.246;2023-07-16T01:12:31;9;7;
64631;PMS5003;58358;50.936;0.246;2023-07-16T01:14:56;10;8;
64631;PMS5003;58358;50.936;0.246;2023-07-16T01:17:22;8;8;
64631;PMS5003;58358;50.936;0.246;2023-07-16T01:19:47;12;9;
64631;PMS5003;58358;50.936;0.246;2023-07-16T01:24:46;11;8;
64631;PMS5003;58358;50.936;0.246;2023-07-16T01:27:08;9;8;
64631;PMS5003;58358;50.936;0.246;2023-07-16T01:29:31;10;8;
64631;PMS5003;58358;50.936;0.246;2023-07-16T01:31:55;10;8;
64631;PMS5003;58358;50.936;0.246;2023-07-16T01:34:20;14;7;
64631;PMS5003;58358;50.936;0.246;2023-07-16T01:36:46;9;7;
64631;PMS5003;58358;50.936;0.246;2023-07-16T01:39:11;9;7;
64631;PMS5003;58358;50.936;0.246;2023-07-16T01:41:37;9;7;
64631;PMS5003;58358;50.936;0.246;2023-07-16T01:44:03;6;6;
64631;PMS5003;58358;50.936;0.246;2023-07-16T01:46:28;7;7;
64631;PMS5003;58358;50.936;0.246;2023-07-16T01:48:54;10;9;
64631;PMS5003;58358;50.936;0.246;2023-07-16T01:51:19;8;8;
64631;PMS5003;58358;50.936;0.246;2023-07-16T01:53:45;12;9;
64631;PMS5003;58358;50.936;0.246;2023-07-16T01:56:10;7;6;
64631;PMS5003;58358;50.936;0.246;2023-07-16T01:58:36;9;8;
64631;PMS5003;58358;50.936;0.246;2023-07-16T02:01:01;10;10;
64631;PMS5003;58358;50.936;0.246;2023-07-16T02:03:27;14;9;
64631;PMS5003;58358;50.936;0.246;2023-07-16T02:05:52;13;10;
64631;PMS5003;58358;50.936;0.246;2023-07-16T02:08:17;6;6;
64631;PMS5003;58358;50.936;0.246;2023-07-16T02:10:43;6;6;
64631;PMS5003;58358;50.936;0.246;2023-07-16T02:13:09;11;8;
64631;PMS5003;58358;50.936;0.246;2023-07-16T02:15:34;7;7;
64631;PMS5003;58358;50.936;0.246;2023-07-16T02:17:59;10;8;
64631;PMS5003;58358;50.936;0.246;2023-07-16T02:20:25;11;9;
64631;PMS5003;58358;50.936;0.246;2023-07-16T02:22:50;7;7;
64631;PMS5003;58358;50.936;0.246;2023-07-16T02:25:16;11;8;
64631;PMS5003;58358;50.936;0.246;2023-07-16T02:27:41;8;7;
64631;PMS5003;58358;50.936;0.246;2023-07-16T02:30:06;14;9;
64631;PMS5003;58358;50.936;0.246;2023-07-16T02:32:32;10;9;
64631;PMS5003;58358;50.936;0.246;2023-07-16T02:34:57;8;7;
64631;PMS5003;58358;50.936;0.246;2023-07-16T02:37:23;13;7;
64631;PMS5003;58358;50.936;0.246;2023-07-16T02:39:48;8;8;
64631;PMS5003;58358;50.936;0.246;2023-07-16T02:42:13;9;8;
64631;PMS5003;58358;50.936;0.246;2023-07-16T02:44:39;7;7;
64631;PMS5003;58358;50.936;0.246;2023-07-16T02:47:04;10;7;
64631;PMS5003;58358;50.936;0.246;2023-07-16T02:49:30;10;10;
64631;PMS5003;58358;50.936;0.246;2023-07-16T02:51:56;8;6;
64631;PMS5003;58358;50.936;0.246;2023-07-16T02:54:21;10;8;
64631;PMS5003;58358;50.936;0.246;2023-07-16T02:56:47;14;10;
64631;PMS5003;58358;50.936;0.246;2023-07-16T02:59:12;11;8;
64631;PMS5003;58358;50.936;0.246;2023-07-16T03:01:38;8;8;
64631;PMS5003;58358;50.936;0.246;2023-07-16T03:04:04;7;7;
64631;PMS5003;58358;50.936;0.246;2023-07-16T03:06:29;9;8;
64631;PMS5003;58358;50.936;0.246;2023-07-16T03:08:55;8;6;
64631;PMS5003;58358;50.936;0.246;2023-07-16T03:11:20;12;9;
64631;PMS5003;58358;50.936;0.246;2023-07-16T03:13:46;9;6;
64631;PMS5003;58358;50.936;0.246;2023-07-16T03:16:11;8;6;
64631;PMS5003;58358;50.936;0.246;2023-07-16T03:18:37;6;6;
64631;PMS5003;58358;50.936;0.246;2023-07-16T03:21:02;7;5;
64631;PMS5003;58358;50.936;0.246;2023-07-16T03:23:27;7;6;
64631;PMS5003;58358;50.936;0.246;2023-07-16T03:25:53;10;7;
64631;PMS5003;58358;50.936;0.246;2023-07-16T03:28:19;10;8;
64631;PMS5003;58358;50.936;0.246;2023-07-16T03:30:45;8;8;
64631;PMS5003;58358;50.936;0.246;2023-07-16T03:33:10;14;12;
64631;PMS5003;58358;50.936;0.246;2023-07-16T03:35:35;10;7;
64631;PMS5003;58358;50.936;0.246;2023-07-16T03:38:01;10;7;
64631;PMS5003;58358;50.936;0.246;2023-07-16T03:40:27;11;6;
64631;PMS5003;58358;50.936;0.246;2023-07-16T03:42:52;8;7;
64631;PMS5003;58358;50.936;0.246;2023-07-16T03:45:18;9;9;
64631;PMS5003;58358;50.936;0.246;2023-07-16T03:47:43;9;8;
64631;PMS5003;58358;50.936;0.246;2023-07-16T03:50:08;13;9;
64631;PMS5003;58358;50.936;0.246;2023-07-16T03:52:34;8;6;
64631;PMS5003;58358;50.936;0.246;2023-07-16T03:54:59;10;7;
64631;PMS5003;58358;50.936;0.246;2023-07-16T03:57:26;8;6;
64631;PMS5003;58358;50.936;0.246;2023-07-16T03:59:50;8;6;
64631;PMS5003;58358;50.936;0.246;2023-07-16T04:02:16;6;6;
64631;PMS5003;58358;50.936;0.246;2023-07-16T04:04:42;6;6;
64631;PMS5003;58358;50.936;0.246;2023-07-16T04:07:07;8;6;
64631;PMS5003;58358;50.936;0.246;2023-07-16T04:09:33;8;7;
64631;PMS5003;58358;50.936;0.246;2023-07-16T04:11:58;7;6;
64631;PMS5003;58358;50.936;0.246;2023-07-16T04:14:24;9;9;
64631;PMS5003;58358;50.936;0.246;2023-07-16T04:16:49;7;5;
64631;PMS5003;58358;50.936;0.246;2023-07-16T04:19:15;11;9;
64631;PMS5003;58358;50.936;0.246;2023-07-16T04:21:41;13;10;
64631;PMS5003;58358;50.936;0.246;2023-07-16T04:24:06;8;7;
64631;PMS5003;58358;50.936;0.246;2023-07-16T04:26:31;11;8;
64631;PMS5003;58358;50.936;0.246;2023-07-16T04:28:57;9;6;
64631;PMS5003;58358;50.936;0.246;2023-07-16T04:31:22;8;6;
64631;PMS5003;58358;50.936;0.246;2023-07-16T04:33:48;6;6;
64631;PMS5003;58358;50.936;0.246;2023-07-16T04:36:13;7;7;
64631;PMS5003;58358;50.936;0.246;2023-07-16T04:38:39;14;8;
64631;PMS5003;58358;50.936;0.246;2023-07-16T04:41:04;15;12;
64631;PMS5003;58358;50.936;0.246;2023-07-16T04:43:30;8;8;
64631;PMS5003;58358;50.936;0.246;2023-07-16T04:45:55;7;7;
64631;PMS5003;58358;50.936;0.246;2023-07-16T04:48:21;8;8;
64631;PMS5003;58358;50.936;0.246;2023-07-16T04:50:47;7;7;
64631;PMS5003;58358;50.936;0.246;2023-07-16T04:53:12;11;9;
64631;PMS5003;58358;50.936;0.246;2023-07-16T04:55:38;11;8;
64631;PMS5003;58358;50.936;0.246;2023-07-16T04:58:04;9;7;
64631;PMS5003;58358;50.936;0.246;2023-07-16T05:00:29;7;7;
64631;PMS5003;58358;50.936;0.246;2023-07-16T05:02:54;7;6;
64631;PMS5003;58358;50.936;0.246;2023-07-16T05:05:20;9;8;
64631;PMS5003;58358;50.936;0.246;2023-07-16T05:07:46;9;7;
64631;PMS5003;58358;50.936;0.246;2023-07-16T05:10:11;8;7;
64631;PMS5003;58358;50.936;0.246;2023-07-16T05:12:37;7;6;
64631;PMS5003;58358;50.936;0.246;2023-07-16T05:15:03;10;5;
64631;PMS5003;58358;50.936;0.246;2023-07-16T05:17:28;6;6;
64631;PMS5003;58358;50.936;0.246;2023-07-16T05:19:54;3;3;
64631;PMS5003;58358;50.936;0.246;2023-07-16T05:22:20;3;3;
64631;PMS5003;58358;50.936;0.246;2023-07-16T05:24:45;4;4;
64631;PMS5003;58358;50.936;0.246;2023-07-16T05:27:11;12;5;
64631;PMS5003;58358;50.936;0.246;2023-07-16T05:29:36;6;6;
64631;PMS5003;58358;50.936;0.246;2023-07-16T05:32:02;8;6;
64631;PMS5003;58358;50.936;0.246;2023-07-16T05:34:27;9;9;
64631;PMS5003;58358;50.936;0.246;2023-07-16T05:36:53;7;5;
64631;PMS5003;58358;50.936;0.246;2023-07-16T05:39:18;15;10;
64631;PMS5003;58358;50.936;0.246;2023-07-16T05:41:44;10;8;
64631;PMS5003;58358;50.936;0.246;2023-07-16T05:44:10;10;6;
64631;PMS5003;58358;50.936;0.246;2023-07-16T05:46:35;7;6;
64631;PMS5003;58358;50.936;0.246;2023-07-16T05:49:01;9;7;
64631;PMS5003;58358;50.936;0.246;2023-07-16T05:51:26;9;6;
64631;PMS5003;58358;50.936;0.246;2023-07-16T05:53:52;14;8;
64631;PMS5003;58358;50.936;0.246;2023-07-16T05:56:18;7;5;
64631;PMS5003;58358;50.936;0.246;2023-07-16T05:58:43;10;9;
64631;PMS5003;58358;50.936;0.246;2023-07-16T06:01:08;11;11;
64631;PMS5003;58358;50.936;0.246;2023-07-16T06:03:34;10;8;
64631;PMS5003;58358;50.936;0.246;2023-07-16T06:06:00;10;9;
64631;PMS5003;58358;50.936;0.246;2023-07-16T06:08:25;8;7;
64631;PMS5003;58358;50.936;0.246;2023-07-16T06:10:51;5;5;
64631;PMS5003;58358;50.936;0.246;2023-07-16T06:13:16;5;5;
64631;PMS5003;58358;50.936;0.246;2023-07-16T06:15:42;7;6;
64631;PMS5003;58358;50.936;0.246;2023-07-16T06:18:07;11;8;
64631;PMS5003;58358;50.936;0.246;2023-07-16T06:20:33;8;7;
64631;PMS5003;58358;50.936;0.246;2023-07-16T06:22:58;9;6;
64631;PMS5003;58358;50.936;0.246;2023-07-16T06:25:23;6;6;
64631;PMS5003;58358;50.936;0.246;2023-07-16T06:27:49;7;5;
64631;PMS5003;58358;50.936;0.246;2023-07-16T06:30:15;7;5;
64631;PMS5003;58358;50.936;0.246;2023-07-16T06:32:40;6;4;
64631;PMS5003;58358;50.936;0.246;2023-07-16T06:35:06;9;8;
64631;PMS5003;58358;50.936;0.246;2023-07-16T06:37:31;8;6;
64631;PMS5003;58358;50.936;0.246;2023-07-16T06:39:57;7;7;
64631;PMS5003;58358;50.936;0.246;2023-07-16T06:42:22;8;6;
64631;PMS5003;58358;50.936;0.246;2023-07-16T06:44:48;9;6;
64631;PMS5003;58358;50.936;0.246;2023-07-16T06:47:13;10;6;
64631;PMS5003;58358;50.936;0.246;2023-07-16T06:49:39;6;5;
64631;PMS5003;58358;50.936;0.246;2023-07-16T06:52:05;5;5;
64631;PMS5003;58358;50.936;0.246;2023-07-16T06:54:30;5;5;
64631;PMS5003;58358;50.936;0.246;2023-07-16T06:56:55;9;9;
64631;PMS5003;58358;50.936;0.246;2023-07-16T06:59:21;6;5;
64631;PMS5003;58358;50.936;0.246;2023-07-16T07:01:46;6;5;
64631;PMS5003;58358;50.936;0.246;2023-07-16T07:04:12;7;6;
64631;PMS5003;58358;50.936;0.246;2023-07-16T07:06:37;6;6;
64631;PMS5003;58358;50.936;0.246;2023-07-16T07:09:03;9;8;
64631;PMS5003;58358;50.936;0.246;2023-07-16T07:11:28;4;4;
64631;PMS5003;58358;50.936;0.246;2023-07-16T07:13:54;8;8;
64631;PMS5003;58358;50.936;0.246;2023-07-16T07:16:20;4;4;
64631;PMS5003;58358;50.936;0.246;2023-07-16T07:18:45;3;3;
64631;PMS5003;58358;50.936;0.246;2023-07-16T07:21:11;5;4;
64631;PMS5003;58358;50.936;0.246;2023-07-16T07:23:36;6;6;
64631;PMS5003;58358;50.936;0.246;2023-07-16T07:26:02;7;7;
64631;PMS5003;58358;50.936;0.246;2023-07-16T07:28:27;4;4;
64631;PMS5003;58358;50.936;0.246;2023-07-16T07:30:53;6;6;
64631;PMS5003;58358;50.936;0.246;2023-07-16T07:33:19;8;6;
64631;PMS5003;58358;50.936;0.246;2023-07-16T07:35:44;8;6;
64631;PMS5003;58358;50.936;0.246;2023-07-16T07:38:10;6;4;
64631;PMS5003;58358;50.936;0.246;2023-07-16T07:40:36;3;2;
64631;PMS5003;58358;50.936;0.246;2023-07-16T07:43:01;9;5;
64631;PMS5003;58358;50.936;0.246;2023-07-16T07:45:27;5;3;
64631;PMS5003;58358;50.936;0.246;2023-07-16T07:47:52;4;3;
64631;PMS5003;58358;50.936;0.246;2023-07-16T07:50:18;7;5;
64631;PMS5003;58358;50.936;0.246;2023-07-16T07:52:44;4;4;
64631;PMS5003;58358;50.936;0.246;2023-07-16T07:55:09;5;5;
64631;PMS5003;58358;50.936;0.246;2023-07-16T07:57:35;7;2;
64631;PMS5003;58358;50.936;0.246;2023-07-16T08:00:01;7;6;
64631;PMS5003;58358;50.936;0.246;2023-07-16T08:02:26;6;5;
64631;PMS5003;58358;50.936;0.246;2023-07-16T08:04:51;9;7;
64631;PMS5003;58358;50.936;0.246;2023-07-16T08:07:17;7;5;
64631;PMS5003;58358;50.936;0.246;2023-07-16T08:09:43;7;6;
64631;PMS5003;58358;50.936;0.246;2023-07-16T08:12:08;6;3;
64631;PMS5003;58358;50.936;0.246;2023-07-16T08:14:34;4;4;
64631;PMS5003;58358;50.936;0.246;2023-07-16T08:16:59;3;3;
64631;PMS5003;58358;50.936;0.246;2023-07-16T08:19:25;3;2;
64631;PMS5003;58358;50.936;0.246;2023-07-16T08:21:50;4;4;
64631;PMS5003;58358;50.936;0.246;2023-07-16T08:24:16;4;4;
64631;PMS5003;58358;50.936;0.246;2023-07-16T08:26:41;7;4;
64631;PMS5003;58358;50.936;0.246;2023-07-16T08:29:07;4;4;
64631;PMS5003;58358;50.936;0.246;2023-07-16T08:31:32;7;5;
64631;PMS5003;58358;50.936;0.246;2023-07-16T08:33:58;4;3;
64631;PMS5003;58358;50.936;0.246;2023-07-16T08:36:24;6;6;
64631;PMS5003;58358;50.936;0.246;2023-07-16T08:38:49;6;4;
64631;PMS5003;58358;50.936;0.246;2023-07-16T08:41:15;2;2;
64631;PMS5003;58358;50.936;0.246;2023-07-16T08:43:40;5;4;
64631;PMS5003;58358;50.936;0.246;2023-07-16T08:46:06;5;5;
64631;PMS5003;58358;50.936;0.246;2023-07-16T08:48:32;4;4;
64631;PMS5003;58358;50.936;0.246;2023-07-16T08:50:57;5;5;
64631;PMS5003;58358;50.936;0.246;2023-07-16T08:53:23;6;4;
64631;PMS5003;58358;50.936;0.246;2023-07-16T08:55:48;2;2;
64631;PMS5003;58358;50.936;0.246;2023-07-16T08:58:14;5;3;
64631;PMS5003;58358;50.936;0.246;2023-07-16T09:00:40;8;8;
64631;PMS5003;58358;50.936;0.246;2023-07-16T09:03:05;8;5;
64631;PMS5003;58358;50.936;0.246;2023-07-16T09:05:31;7;4;
64631;PMS5003;58358;50.936;0.246;2023-07-16T09:07:57;8;4;
64631;PMS5003;58358;50.936;0.246;2023-07-16T09:10:22;5;3;
64631;PMS5003;58358;50.936;0.246;2023-07-16T09:12:48;4;2;
64631;PMS5003;58358;50.936;0.246;2023-07-16T09:15:17;3;3;
64631;PMS5003;58358;50.936;0.246;2023-07-16T09:17:39;4;1;
64631;PMS5003;58358;50.936;0.246;2023-07-16T09:20:05;3;3;
64631;PMS5003;58358;50.936;0.246;2023-07-16T09:22:30;1;1;
64631;PMS5003;58358;50.936;0.246;2023-07-16T09:24:55;4;4;
64631;PMS5003;58358;50.936;0.246;2023-07-16T09:27:21;5;3;
64631;PMS5003;58358;50.936;0.246;2023-07-16T09:29:47;4;4;
64631;PMS5003;58358;50.936;0.246;2023-07-16T09:32:12;8;6;
64631;PMS5003;58358;50.936;0.246;2023-07-16T09:34:37;4;3;
64631;PMS5003;58358;50.936;0.246;2023-07-16T09:37:04;3;3;
64631;PMS5003;58358;50.936;0.246;2023-07-16T09:39:28;4;3;
64631;PMS5003;58358;50.936;0.246;2023-07-16T09:41:54;2;2;
64631;PMS5003;58358;50.936;0.246;2023-07-16T09:44:20;3;2;
64631;PMS5003;58358;50.936;0.246;2023-07-16T09:46:45;5;3;
64631;PMS5003;58358;50.936;0.246;2023-07-16T09:49:11;2;2;
64631;PMS5003;58358;50.936;0.246;2023-07-16T09:51:37;4;3;
